createdAt,value
2022-08-03T05:11:21.310Z,97297.00
2022-08-03T05:13:48.186Z,97291.00
2022-08-03T05:16:15.616Z,97292.00
2022-08-03T05:18:44.127Z,97297.00
2022-08-03T05:21:13.909Z,97294.00
2022-08-03T05:23:41.386Z,97302.00
2022-08-03T05:26:08.274Z,97315.00
2022-08-03T05:28:35.143Z,97311.00
2022-08-03T05:31:02.619Z,97313.00
2022-08-03T05:33:29.559Z,97321.00
2022-08-03T05:36:03.499Z,97317.00
2022-08-03T05:38:34.047Z,97313.00
2022-08-03T05:41:21.785Z,97307.00
2022-08-03T05:43:53.602Z,97305.00
2022-08-03T05:46:22.127Z,97302.00
2022-08-03T05:48:49.034Z,97312.00
2022-08-03T05:51:16.010Z,97309.00
2022-08-03T05:53:43.906Z,97308.00
2022-08-03T05:56:14.261Z,97307.00
2022-08-03T05:58:47.375Z,97308.00
2022-08-03T06:01:18.544Z,97309.00
2022-08-03T06:03:46.340Z,97311.00
2022-08-03T06:06:13.868Z,97308.00
2022-08-03T06:08:42.437Z,97302.00
2022-08-03T06:11:09.645Z,97297.00
2022-08-03T06:13:36.969Z,97300.00
2022-08-03T06:16:04.301Z,97308.00
2022-08-03T06:18:31.177Z,97309.00
2022-08-03T06:20:58.057Z,97301.00
2022-08-03T06:23:54.764Z,97299.00
2022-08-03T06:26:26.954Z,97305.00
2022-08-03T06:28:55.275Z,97296.00
2022-08-03T06:31:25.886Z,97297.00
2022-08-03T06:34:31.458Z,97301.00
2022-08-03T06:36:39.831Z,97293.00
2022-08-03T06:42:22.768Z,97297.00
2022-08-03T06:44:49.923Z,97297.00
2022-08-03T06:47:17.332Z,97294.00
2022-08-03T06:49:44.309Z,97298.00
2022-08-03T06:52:37.947Z,97296.00
2022-08-03T06:55:06.887Z,97301.00
2022-08-03T06:57:33.894Z,97302.00
2022-08-03T07:00:07.552Z,97302.00
2022-08-03T07:02:39.930Z,97310.00
2022-08-03T07:05:08.677Z,97313.00
2022-08-03T07:07:36.173Z,97310.00
2022-08-03T07:10:04.285Z,97308.00
2022-08-03T07:12:32.267Z,97309.00
2022-08-03T07:15:02.669Z,97308.00
2022-08-03T07:17:33.295Z,97314.00
2022-08-03T07:20:01.856Z,97314.00
2022-08-03T07:22:28.797Z,97307.00
2022-08-03T07:24:56.769Z,97303.00
2022-08-03T07:27:23.825Z,97308.00
2022-08-03T07:29:50.663Z,97307.00
2022-08-03T07:32:17.682Z,97301.00
2022-08-03T07:34:44.798Z,97308.00
2022-08-03T07:37:11.773Z,97307.00
2022-08-03T07:39:38.604Z,97301.00
2022-08-03T07:42:05.612Z,97312.00
2022-08-03T07:44:32.589Z,97307.00
2022-08-03T07:46:59.967Z,97304.00
2022-08-03T07:49:30.571Z,97305.00
2022-08-03T07:52:16.623Z,97302.00
2022-08-03T07:54:43.915Z,97306.00
2022-08-03T07:57:10.933Z,97297.00
2022-08-03T07:59:56.431Z,97309.00
2022-08-03T08:02:26.774Z,97300.00
2022-08-03T08:04:53.649Z,97291.00
2022-08-03T08:07:20.747Z,97293.00
2022-08-03T08:09:47.612Z,97297.00
2022-08-03T08:12:15.715Z,97293.00
2022-08-03T08:14:45.732Z,97283.00
2022-08-03T08:17:13.476Z,97284.00
2022-08-03T08:19:42.775Z,97283.00
2022-08-03T08:22:19.740Z,97280.00
2022-08-03T08:24:57.401Z,97280.00
2022-08-03T08:27:24.244Z,97283.00
2022-08-03T08:29:52.639Z,97281.00
2022-08-03T08:32:23.463Z,97281.00
2022-08-03T08:34:50.921Z,97282.00
2022-08-03T08:37:18.720Z,97284.00
2022-08-03T08:39:45.921Z,97279.00
2022-08-03T08:42:12.878Z,97281.00
2022-08-03T08:44:39.853Z,97273.00
2022-08-03T08:47:09.415Z,97272.00
2022-08-03T08:49:38.438Z,97280.00
2022-08-03T08:52:24.889Z,97268.00
2022-08-03T08:55:13.986Z,97266.00
2022-08-03T08:57:59.110Z,97268.00
2022-08-03T09:00:26.019Z,97268.00
2022-08-03T09:02:53.077Z,97278.00
2022-08-03T09:05:27.813Z,97271.00
2022-08-03T09:08:07.868Z,97270.00
2022-08-03T09:10:35.960Z,97266.00
2022-08-03T09:13:03.063Z,97270.00
2022-08-03T09:15:33.094Z,97272.00
2022-08-03T09:18:02.772Z,97262.00
2022-08-03T09:32:48.954Z,97270.00
2022-08-03T09:35:51.563Z,97268.00
2022-08-03T09:38:18.021Z,97267.00
2022-08-03T09:40:46.203Z,97268.00
2022-08-03T09:43:14.043Z,97268.00
2022-08-03T09:45:41.400Z,97264.00
2022-08-03T09:48:29.657Z,97264.00
2022-08-03T09:51:13.281Z,97272.00
2022-08-03T09:53:58.758Z,97263.00
2022-08-03T09:56:46.830Z,97257.00
2022-08-03T09:59:26.216Z,97255.00
2022-08-03T10:01:54.141Z,97252.00
2022-08-03T10:04:22.129Z,97252.00
2022-08-03T10:07:25.030Z,97248.00
2022-08-03T10:10:28.899Z,97256.00
2022-08-03T10:12:50.624Z,97255.00
2022-08-03T10:16:21.521Z,97247.00
2022-08-03T10:18:05.823Z,97252.00
2022-08-03T10:20:46.700Z,97246.00
2022-08-03T10:23:15.510Z,97248.00
2022-08-03T10:25:47.735Z,97245.00
2022-08-03T10:28:18.876Z,97239.00
2022-08-03T10:30:51.278Z,97232.00
2022-08-03T10:33:50.335Z,97240.00
2022-08-03T10:36:14.271Z,97240.00
2022-08-03T10:38:52.684Z,97226.00
2022-08-03T10:41:24.690Z,97225.00
2022-08-03T10:44:08.488Z,97231.00
2022-08-03T10:46:42.812Z,97230.00
2022-08-03T10:49:15.149Z,97224.00
2022-08-03T10:51:45.100Z,97218.00
2022-08-03T10:54:36.967Z,97219.00
2022-08-03T10:57:22.723Z,97218.00
2022-08-03T10:59:50.556Z,97217.00
2022-08-03T11:02:17.933Z,97217.00
2022-08-03T11:04:45.179Z,97207.00
2022-08-03T11:07:25.112Z,97206.00
2022-08-03T11:09:55.326Z,97206.00
2022-08-03T11:12:33.633Z,97209.00
2022-08-03T11:15:07.281Z,97208.00
2022-08-03T11:17:46.484Z,97218.00
2022-08-03T11:20:48.814Z,97214.00
2022-08-03T11:23:19.459Z,97199.00
2022-08-03T11:26:19.449Z,97206.00
2022-08-03T11:28:48.183Z,97206.00
2022-08-03T11:31:48.848Z,97195.00
2022-08-03T11:34:16.584Z,97204.00
2022-08-03T11:37:24.601Z,97204.00
2022-08-03T11:39:55.397Z,97202.00
2022-08-03T11:42:29.109Z,97203.00
2022-08-03T11:45:00.785Z,97192.00
2022-08-03T11:47:29.900Z,97194.00
2022-08-03T11:50:00.592Z,97189.00
2022-08-03T11:52:34.764Z,97188.00
2022-08-03T11:55:01.979Z,97196.00
2022-08-03T11:59:14.247Z,97194.00
2022-08-03T12:00:32.493Z,97187.00
2022-08-03T12:03:13.620Z,97191.00
2022-08-03T12:05:51.297Z,97191.00
2022-08-03T12:08:40.243Z,97188.00
2022-08-03T12:11:10.308Z,97183.00
2022-08-03T12:14:44.586Z,97176.00
2022-08-03T12:16:29.856Z,97180.00
2022-08-03T12:19:05.764Z,97177.00
2022-08-03T12:21:32.703Z,97186.00
2022-08-03T12:24:05.254Z,97178.00
2022-08-03T12:26:58.518Z,97171.00
2022-08-03T12:29:27.039Z,97179.00
2022-08-03T12:31:56.642Z,97174.00
2022-08-03T12:34:23.625Z,97175.00
2022-08-03T12:36:53.876Z,97160.00
2022-08-03T12:39:27.516Z,97172.00
2022-08-03T12:41:57.254Z,97168.00
2022-08-03T12:44:36.938Z,97162.00
2022-08-03T12:47:06.624Z,97160.00
2022-08-03T12:50:00.005Z,97165.00
2022-08-03T12:52:27.210Z,97163.00
2022-08-03T13:15:48.162Z,97146.00
2022-08-03T13:18:17.322Z,97147.00
2022-08-03T13:20:44.768Z,97146.00
2022-08-03T13:23:15.455Z,97153.00
2022-08-03T13:25:55.321Z,97154.00
2022-08-03T13:28:23.623Z,97146.00
2022-08-03T13:30:50.565Z,97146.00
2022-08-03T13:33:17.703Z,97140.00
2022-08-03T13:35:45.333Z,97135.00
2022-08-03T13:38:13.656Z,97143.00
2022-08-03T13:40:43.251Z,97154.00
2022-08-03T13:43:14.043Z,97138.00
2022-08-03T13:45:44.632Z,97135.00
2022-08-03T13:48:14.400Z,97143.00
2022-08-03T13:51:05.359Z,97129.00
2022-08-03T13:53:48.267Z,97125.00
2022-08-03T13:56:15.077Z,97134.00
2022-08-03T13:58:41.915Z,97129.00
2022-08-03T14:01:08.838Z,97125.00
2022-08-03T14:03:35.933Z,97123.00
2022-08-03T14:06:02.839Z,97121.00
2022-08-03T14:08:31.203Z,97126.00
2022-08-03T14:10:58.696Z,97118.00
2022-08-03T14:13:27.433Z,97121.00
2022-08-03T14:15:55.616Z,97123.00
2022-08-03T14:18:27.880Z,97122.00
2022-08-03T14:21:01.989Z,97113.00
2022-08-03T14:23:32.866Z,97120.00
2022-08-03T14:26:01.136Z,97115.00
2022-08-03T14:28:28.632Z,97114.00
2022-08-03T14:30:59.560Z,97118.00
2022-08-03T14:33:28.474Z,97114.00
2022-08-03T14:35:55.828Z,97119.00
2022-08-03T14:38:24.269Z,97110.00
2022-08-03T14:40:51.724Z,97106.00
2022-08-03T14:43:21.127Z,97113.00
2022-08-03T14:45:53.701Z,97102.00
2022-08-03T14:50:24.994Z,97108.00
2022-08-03T14:51:09.884Z,97108.00
2022-08-03T14:53:36.836Z,97103.00
2022-08-03T14:56:09.448Z,97104.00
2022-08-03T14:58:37.176Z,97094.00
2022-08-03T15:01:04.168Z,97091.00
2022-08-03T15:03:51.470Z,97089.00
2022-08-03T15:06:19.439Z,97086.00
2022-08-03T15:09:05.993Z,97091.00
2022-08-03T15:11:33.369Z,97086.00
2022-08-03T15:14:00.416Z,97081.00
2022-08-03T15:26:31.813Z,97082.00
2022-08-03T15:28:07.686Z,97070.00
2022-08-03T15:30:38.464Z,97081.00
2022-08-03T15:33:05.623Z,97084.00
2022-08-03T15:35:33.152Z,97075.00
2022-08-03T15:38:00.041Z,97076.00
2022-08-03T15:40:27.328Z,97076.00
2022-08-03T15:42:54.167Z,97073.00
2022-08-03T15:45:22.351Z,97072.00
2022-08-03T15:47:50.063Z,97074.00
2022-08-03T15:50:17.033Z,97068.00
2022-08-03T15:52:45.325Z,97068.00
2022-08-03T15:55:15.892Z,97069.00
2022-08-03T15:59:10.514Z,97073.00
2022-08-03T16:00:33.325Z,97072.00
2022-08-03T16:03:01.568Z,97075.00
2022-08-03T16:05:28.796Z,97073.00
2022-08-03T16:08:03.877Z,97071.00
2022-08-03T16:10:33.321Z,97065.00
2022-08-03T16:13:00.540Z,97071.00
2022-08-03T16:15:27.724Z,97070.00
2022-08-03T16:17:57.961Z,97065.00
2022-08-03T16:20:34.349Z,97067.00
2022-08-03T16:23:11.439Z,97069.00
2022-08-03T16:25:49.359Z,97064.00
2022-08-03T16:28:17.379Z,97060.00
2022-08-03T16:30:46.579Z,97068.00
2022-08-03T16:33:16.862Z,97062.00
2022-08-03T16:35:46.656Z,97064.00
2022-08-03T16:38:18.586Z,97058.00
2022-08-03T16:40:51.461Z,97059.00
2022-08-03T16:43:22.544Z,97064.00
2022-08-03T16:45:50.958Z,97057.00
2022-08-03T16:48:19.070Z,97056.00
2022-08-03T16:50:46.214Z,97055.00
2022-08-03T16:53:16.882Z,97052.00
2022-08-03T16:55:53.167Z,97058.00
2022-08-03T16:58:34.471Z,97052.00
2022-08-03T17:01:22.553Z,97062.00
2022-08-03T17:04:04.634Z,97065.00
2022-08-03T17:06:45.142Z,97057.00
2022-08-03T17:09:21.396Z,97055.00
2022-08-03T17:11:51.316Z,97053.00
2022-08-03T17:14:22.852Z,97059.00
2022-08-03T17:17:05.147Z,97055.00
2022-08-03T17:19:40.069Z,97055.00
2022-08-03T17:22:18.624Z,97060.00
2022-08-03T17:24:51.369Z,97049.00
2022-08-03T17:28:48.617Z,97059.00
2022-08-03T17:30:15.952Z,97060.00
2022-08-03T17:32:53.481Z,97069.00
2022-08-03T17:35:34.467Z,97073.00
2022-08-03T17:38:08.874Z,97076.00
2022-08-03T17:40:38.001Z,97078.00
2022-08-03T17:44:13.937Z,97074.00
2022-08-03T17:45:54.730Z,97086.00
2022-08-03T17:48:25.076Z,97079.00
2022-08-03T17:51:00.375Z,97076.00
2022-08-03T17:53:38.024Z,97072.00
2022-08-03T17:56:38.898Z,97088.00
2022-08-03T17:59:51.057Z,97080.00
2022-08-03T18:02:48.109Z,97080.00
2022-08-03T18:05:18.220Z,97086.00
2022-08-03T18:08:01.731Z,97087.00
2022-08-03T18:10:35.180Z,97090.00
2022-08-03T18:13:21.373Z,97092.00
2022-08-03T18:16:02.701Z,97094.00
2022-08-03T18:18:44.287Z,97099.00
2022-08-03T18:21:17.680Z,97101.00
2022-08-03T18:23:46.036Z,97091.00
2022-08-03T18:26:18.924Z,97103.00
2022-08-03T18:28:48.122Z,97102.00
2022-08-03T18:31:59.655Z,97103.00
2022-08-03T18:34:19.210Z,97104.00
2022-08-03T18:36:53.094Z,97116.00
2022-08-03T18:39:23.241Z,97110.00
2022-08-03T18:41:51.418Z,97102.00
2022-08-03T18:44:38.014Z,97110.00
2022-08-03T18:47:24.148Z,97104.00
2022-08-03T18:50:19.275Z,97107.00
2022-08-03T18:53:15.798Z,97112.00
2022-08-03T18:56:08.156Z,97118.00
2022-08-03T18:59:02.958Z,97120.00
2022-08-03T19:01:59.980Z,97120.00
2022-08-03T19:04:44.359Z,97120.00
2022-08-03T19:07:27.262Z,97121.00
2022-08-03T19:09:58.485Z,97124.00
2022-08-03T19:12:40.644Z,97126.00
2022-08-03T19:15:13.039Z,97124.00
2022-08-03T19:17:50.277Z,97129.00
2022-08-03T19:20:30.757Z,97125.00
2022-08-03T19:22:59.673Z,97134.00
2022-08-03T19:25:35.027Z,97132.00
2022-08-03T19:28:06.258Z,97137.00
2022-08-03T19:30:40.481Z,97139.00
2022-08-03T19:33:15.987Z,97136.00
2022-08-03T19:35:55.339Z,97135.00
2022-08-03T19:38:27.599Z,97132.00
2022-08-03T19:41:00.599Z,97144.00
2022-08-03T19:43:53.097Z,97145.00
2022-08-03T19:46:22.780Z,97132.00
2022-08-03T19:49:04.542Z,97152.00
2022-08-03T19:52:01.483Z,97139.00
2022-08-03T19:54:39.624Z,97143.00
2022-08-03T19:57:19.035Z,97145.00
2022-08-03T19:59:49.927Z,97150.00
2022-08-03T20:02:25.689Z,97141.00
2022-08-03T20:04:55.957Z,97153.00
2022-08-03T20:07:24.487Z,97142.00
2022-08-03T20:09:56.566Z,97142.00
2022-08-03T20:12:27.559Z,97143.00
2022-08-03T20:14:59.100Z,97145.00
2022-08-03T20:17:55.525Z,97145.00
2022-08-03T20:20:19.737Z,97144.00
2022-08-03T20:22:52.748Z,97145.00
2022-08-03T20:25:37.886Z,97145.00
2022-08-03T20:28:16.312Z,97137.00
2022-08-03T20:30:47.163Z,97140.00
2022-08-03T20:33:18.904Z,97140.00
2022-08-03T20:35:49.728Z,97147.00
2022-08-03T20:38:19.989Z,97135.00
2022-08-03T20:40:54.547Z,97141.00
2022-08-03T20:43:22.348Z,97137.00
2022-08-03T20:46:01.076Z,97151.00
2022-08-03T20:48:37.965Z,97143.00
2022-08-03T20:51:19.680Z,97141.00
2022-08-03T20:54:00.133Z,97148.00
2022-08-03T20:56:34.142Z,97147.00
2022-08-03T20:59:04.202Z,97142.00
2022-08-03T21:01:36.419Z,97144.00
2022-08-03T21:04:09.543Z,97147.00
2022-08-03T21:06:42.786Z,97136.00
2022-08-03T21:09:20.428Z,97147.00
2022-08-03T21:11:51.477Z,97148.00
2022-08-03T21:14:42.834Z,97147.00
2022-08-03T21:17:25.064Z,97150.00
2022-08-03T21:19:59.107Z,97143.00
2022-08-03T21:24:57.186Z,97144.00
2022-08-03T21:27:25.341Z,97148.00
2022-08-03T21:29:54.186Z,97147.00
2022-08-03T21:32:32.801Z,97145.00
2022-08-03T21:51:59.916Z,97152.00
2022-08-03T21:54:43.022Z,97132.00
2022-08-03T21:57:20.591Z,97149.00
2022-08-03T22:00:16.500Z,97149.00
2022-08-03T22:02:57.207Z,97148.00
2022-08-03T22:05:43.347Z,97157.00
2022-08-03T22:08:13.787Z,97154.00
2022-08-03T22:10:43.921Z,97158.00
2022-08-03T22:13:14.526Z,97154.00
2022-08-03T22:15:41.941Z,97158.00
2022-08-03T22:18:09.587Z,97159.00
2022-08-03T22:20:36.842Z,97149.00
2022-08-03T22:23:07.027Z,97154.00
2022-08-03T22:25:36.985Z,97160.00
2022-08-03T22:28:15.248Z,97169.00
2022-08-03T22:30:43.358Z,97160.00
2022-08-03T22:33:12.092Z,97162.00
2022-08-03T22:35:50.470Z,97170.00
2022-08-03T22:38:18.701Z,97167.00
2022-08-03T22:40:49.752Z,97161.00
2022-08-03T22:43:17.390Z,97166.00
2022-08-03T22:46:09.159Z,97165.00
2022-08-03T22:48:37.181Z,97158.00
2022-08-03T22:51:09.332Z,97165.00
2022-08-03T22:53:37.143Z,97162.00
2022-08-03T22:56:04.545Z,97167.00
2022-08-03T22:58:31.391Z,97163.00
2022-08-03T23:01:07.977Z,97169.00
2022-08-03T23:03:59.804Z,97167.00
2022-08-03T23:06:39.134Z,97165.00
2022-08-03T23:09:09.891Z,97166.00
2022-08-03T23:11:46.024Z,97163.00
2022-08-03T23:14:17.555Z,97167.00
2022-08-03T23:16:46.847Z,97161.00
2022-08-03T23:19:17.112Z,97162.00
2022-08-03T23:21:59.987Z,97167.00
2022-08-03T23:24:34.870Z,97167.00
2022-08-03T23:27:04.794Z,97160.00
2022-08-03T23:29:35.475Z,97169.00
2022-08-03T23:32:04.271Z,97169.00
2022-08-03T23:34:51.510Z,97165.00
2022-08-03T23:37:20.277Z,97169.00
2022-08-03T23:39:48.704Z,97169.00
2022-08-03T23:42:18.572Z,97171.00
2022-08-03T23:44:46.396Z,97165.00
2022-08-03T23:47:14.419Z,97170.00
2022-08-03T23:49:41.548Z,97172.00
2022-08-03T23:52:56.945Z,97166.00
2022-08-03T23:55:41.707Z,97167.00
2022-08-03T23:59:01.037Z,97169.00
